PORTS® Data Listing: 8518750 The Battery, NY

CO-OPS RAW PORTS DATA

************************      PRELIMINARY DATA      ************************** 

     THIS RAW DATA HAS NOT BEEN SUBJECT TO THE NATIONAL OCEAN SERVICE'S        
     QUALITY CONTROL OR QUALITY ASSURANCE PROCEDURES AND DOES NOT MEET         
     THE CRITERIA AND STANDARDS OF OFFICIAL NATIONAL OCEAN SERVICE             
     DATA.  IT IS RELEASED FOR LIMITED PUBLIC USE AS PRELIMINARY DATA TO       
     BE USED ONLY WITH APPROPRIATE CAUTION.                                    

************************      PRELIMINARY DATA      ************************** 


       CD   -   Calendar date
       T    -   Time
       TZ   -   Timezone
       PW   -   Predicted water level (feet above MLLW)
       OW   -   Observed water level (feet above MLLW)
       WS   -   Wind speed (knots)
       WD   -   Wind direction (degrees true)
       WG   -   Wind gust (knots)
       AT   -   Air temperature (degrees farenheit)
       WT   -   Water temperature (degrees farenheit)
       AP   -   Air pressure (millibars)
       SA   -   Salinty (PSU - Practical Salinity Units)
       SG   -   Specific gravity
       RH   -   Relative humidity
       AG   -   Air gap (feet)
       VI   -   Visibility (nautical miles)

       ** NOTE **
       A variable that has its data fields filled with "9"s, indicates that
       data was not collected for that sample period.
       **********


STATION NAME: The Battery (8518750)
****************************************************************************************************
    CD       T    TZ    PW     OW    WS   WD   WG    AT    WT    AP    SA    SG     RH    AG   VI
****************************************************************************************************
2020/02/24 05:12 EST    2.14   2.51 -999 -999 -999  40.0  41.0 1017.9 -9.9 -9.999 -99.9 -99.99 -9.99
2020/02/24 05:18 EST    2.27   2.66 -999 -999 -999  40.0  40.9 1017.9 -9.9 -9.999 -99.9 -99.99 -9.99
2020/02/24 05:24 EST    2.40   2.80 -999 -999 -999  40.0  40.9 1017.9 -9.9 -9.999 -99.9 -99.99 -9.99
2020/02/24 05:30 EST    2.53   2.94 -999 -999 -999  40.2  40.9 1018.0 -9.9 -9.999 -99.9 -99.99 -9.99
2020/02/24 05:36 EST    2.65   3.12 -999 -999 -999  40.1  40.9 1018.1 -9.9 -9.999 -99.9 -99.99 -9.99
2020/02/24 05:42 EST    2.77   3.28 -999 -999 -999  39.8  40.9 1018.1 -9.9 -9.999 -99.9 -99.99 -9.99
2020/02/24 05:48 EST    2.89   3.45 -999 -999 -999  39.7  40.9 1018.2 -9.9 -9.999 -99.9 -99.99 -9.99
2020/02/24 05:54 EST    3.00   3.57 -999 -999 -999  39.7  40.8 1018.2 -9.9 -9.999 -99.9 -99.99 -9.99
2020/02/24 06:00 EST    3.12   3.72 -999 -999 -999  39.8  41.0 1018.2 -9.9 -9.999 -99.9 -99.99 -9.99
2020/02/24 06:06 EST    3.23   3.85 -999 -999 -999  39.9  41.1 1018.2 -9.9 -9.999 -99.9 -99.99 -9.99
2020/02/24 06:12 EST    3.34   3.97 -999 -999 -999  39.9  41.1 1018.3 -9.9 -9.999 -99.9 -99.99 -9.99
2020/02/24 06:18 EST    3.44   4.09 -999 -999 -999  39.8  41.1 1018.3 -9.9 -9.999 -99.9 -99.99 -9.99
2020/02/24 06:24 EST    3.55   4.18 -999 -999 -999  39.7  41.1 1018.1 -9.9 -9.999 -99.9 -99.99 -9.99
2020/02/24 06:30 EST    3.64   4.30 -999 -999 -999  39.6  41.1 1018.1 -9.9 -9.999 -99.9 -99.99 -9.99
2020/02/24 06:36 EST    3.74   4.37 -999 -999 -999  39.5  41.1 1018.1 -9.9 -9.999 -99.9 -99.99 -9.99
2020/02/24 06:42 EST    3.83   4.45 -999 -999 -999  39.6  41.1 1018.1 -9.9 -9.999 -99.9 -99.99 -9.99
2020/02/24 06:48 EST    3.92   4.54 -999 -999 -999  39.5  41.1 1018.1 -9.9 -9.999 -99.9 -99.99 -9.99
2020/02/24 06:54 EST    4.01   4.62 -999 -999 -999  39.7  41.1 1018.1 -9.9 -9.999 -99.9 -99.99 -9.99
2020/02/24 07:00 EST    4.09   4.67 -999 -999 -999  39.7  41.2 1018.2 -9.9 -9.999 -99.9 -99.99 -9.99
2020/02/24 07:06 EST    4.17   4.75 -999 -999 -999  40.0  41.2 1018.2 -9.9 -9.999 -99.9 -99.99 -9.99
2020/02/24 07:12 EST    4.25   4.78 -999 -999 -999  39.7  41.2 1018.2 -9.9 -9.999 -99.9 -99.99 -9.99
2020/02/24 07:18 EST    4.32   4.83 -999 -999 -999  40.2  41.2 1018.3 -9.9 -9.999 -99.9 -99.99 -9.99
2020/02/24 07:24 EST    4.39   4.89 -999 -999 -999  40.5  41.2 1018.3 -9.9 -9.999 -99.9 -99.99 -9.99
2020/02/24 07:30 EST    4.45   4.92 -999 -999 -999  40.9  41.2 1018.2 -9.9 -9.999 -99.9 -99.99 -9.99
2020/02/24 07:36 EST    4.51   5.00 -999 -999 -999  41.5  41.2 1018.2 -9.9 -9.999 -99.9 -99.99 -9.99
2020/02/24 07:42 EST    4.57   5.04 -999 -999 -999  41.7  41.3 1018.2 -9.9 -9.999 -99.9 -99.99 -9.99
2020/02/24 07:48 EST    4.62   5.09 -999 -999 -999  41.3  41.3 1018.3 -9.9 -9.999 -99.9 -99.99 -9.99
2020/02/24 07:54 EST    4.67   5.14 -999 -999 -999  42.4  41.3 1018.3 -9.9 -9.999 -99.9 -99.99 -9.99
2020/02/24 08:00 EST    4.71   5.19 -999 -999 -999  41.9  41.3 1018.4 -9.9 -9.999 -99.9 -99.99 -9.99
2020/02/24 08:06 EST    4.75   5.23 -999 -999 -999  42.5  41.2 1018.3 -9.9 -9.999 -99.9 -99.99 -9.99
2020/02/24 08:12 EST    4.79   5.29 -999 -999 -999  41.6  41.3 1018.3 -9.9 -9.999 -99.9 -99.99 -9.99
2020/02/24 08:18 EST    4.82   5.28 -999 -999 -999  41.3  41.3 1018.4 -9.9 -9.999 -99.9 -99.99 -9.99
2020/02/24 08:24 EST    4.84   5.32 -999 -999 -999  41.1  41.3 1018.4 -9.9 -9.999 -99.9 -99.99 -9.99
2020/02/24 08:30 EST    4.86   5.34 -999 -999 -999  40.7  41.3 1018.5 -9.9 -9.999 -99.9 -99.99 -9.99
2020/02/24 08:36 EST    4.87   5.36 -999 -999 -999  40.5  41.3 1018.6 -9.9 -9.999 -99.9 -99.99 -9.99
2020/02/24 08:42 EST    4.88   5.38 -999 -999 -999  40.5  41.3 1018.5 -9.9 -9.999 -99.9 -99.99 -9.99
2020/02/24 08:48 EST    4.88   5.42 -999 -999 -999  40.5  41.3 1018.5 -9.9 -9.999 -99.9 -99.99 -9.99
2020/02/24 08:54 EST    4.88   5.43 -999 -999 -999  40.5  41.3 1018.6 -9.9 -9.999 -99.9 -99.99 -9.99
2020/02/24 09:00 EST    4.87   5.42 -999 -999 -999  40.7  41.3 1018.5 -9.9 -9.999 -99.9 -99.99 -9.99
2020/02/24 09:06 EST    4.85   5.42 -999 -999 -999  40.6  41.3 1018.5 -9.9 -9.999 -99.9 -99.99 -9.99
2020/02/24 09:12 EST    4.83   5.40 -999 -999 -999  41.0  41.3 1018.4 -9.9 -9.999 -99.9 -99.99 -9.99
2020/02/24 09:18 EST    4.80   5.41 -999 -999 -999  40.9  41.4 1018.5 -9.9 -9.999 -99.9 -99.99 -9.99
2020/02/24 09:24 EST    4.76   5.34 -999 -999 -999  41.2  41.4 1018.4 -9.9 -9.999 -99.9 -99.99 -9.99
2020/02/24 09:30 EST    4.72   5.33 -999 -999 -999  41.6  41.4 1018.3 -9.9 -9.999 -99.9 -99.99 -9.99
2020/02/24 09:36 EST    4.67   5.30 -999 -999 -999  43.0  41.4 1018.3 -9.9 -9.999 -99.9 -99.99 -9.99
2020/02/24 09:42 EST    4.61   5.26 -999 -999 -999  44.6  41.4 1018.3 -9.9 -9.999 -99.9 -99.99 -9.99
2020/02/24 09:48 EST    4.55   5.19 -999 -999 -999  43.2  41.4 1018.4 -9.9 -9.999 -99.9 -99.99 -9.99
2020/02/24 09:54 EST    4.48   5.11 -999 -999 -999  42.6  41.4 1018.3 -9.9 -9.999 -99.9 -99.99 -9.99
2020/02/24 10:00 EST    4.40   5.03 -999 -999 -999  43.7  41.5 1018.4 -9.9 -9.999 -99.9 -99.99 -9.99
2020/02/24 10:06 EST    4.32   4.93 -999 -999 -999  44.0  41.5 1018.3 -9.9 -9.999 -99.9 -99.99 -9.99
2020/02/24 10:12 EST    4.24   4.85 -999 -999 -999  44.0  41.5 1018.2 -9.9 -9.999 -99.9 -99.99 -9.99
2020/02/24 10:18 EST    4.14   4.74 -999 -999 -999  43.5  41.5 1018.1 -9.9 -9.999 -99.9 -99.99 -9.99
2020/02/24 10:24 EST    4.05   4.62 -999 -999 -999  43.3  41.5 1018.0 -9.9 -9.999 -99.9 -99.99 -9.99
2020/02/24 10:30 EST    3.95   4.53 -999 -999 -999  43.5  41.6 1018.0 -9.9 -9.999 -99.9 -99.99 -9.99
2020/02/24 10:36 EST    3.84   4.44 -999 -999 -999  43.5  41.5 1018.1 -9.9 -9.999 -99.9 -99.99 -9.99
2020/02/24 10:42 EST    3.73   4.35 -999 -999 -999  43.9  41.6 1018.1 -9.9 -9.999 -99.9 -99.99 -9.99
2020/02/24 10:48 EST    3.62   4.25 -999 -999 -999  44.2  41.6 1018.0 -9.9 -9.999 -99.9 -99.99 -9.99
2020/02/24 10:54 EST    3.50   4.11 -999 -999 -999  44.7  41.6 1017.9 -9.9 -9.999 -99.9 -99.99 -9.99
2020/02/24 11:00 EST    3.38   4.01 -999 -999 -999  45.0  41.6 1017.8 -9.9 -9.999 -99.9 -99.99 -9.99
2020/02/24 11:06 EST    3.26   3.90 -999 -999 -999  45.0  41.6 1017.7 -9.9 -9.999 -99.9 -99.99 -9.99
2020/02/24 11:12 EST    3.14   3.78 -999 -999 -999  45.4  41.6 1017.5 -9.9 -9.999 -99.9 -99.99 -9.99
2020/02/24 11:18 EST    3.02   3.65 -999 -999 -999  44.6  41.6 1017.6 -9.9 -9.999 -99.9 -99.99 -9.99
2020/02/24 11:24 EST    2.90   3.50 -999 -999 -999  44.3  41.7 1017.6 -9.9 -9.999 -99.9 -99.99 -9.99
2020/02/24 11:30 EST    2.77   3.36 -999 -999 -999  44.5  41.6 1017.6 -9.9 -9.999 -99.9 -99.99 -9.99
2020/02/24 11:36 EST    2.65   3.24 -999 -999 -999  45.4  41.7 1017.5 -9.9 -9.999 -99.9 -99.99 -9.99
2020/02/24 11:42 EST    2.53   3.08 -999 -999 -999  44.9  41.8 1017.5 -9.9 -9.999 -99.9 -99.99 -9.99
2020/02/24 11:48 EST    2.41   2.94 -999 -999 -999  45.8  41.8 1017.4 -9.9 -9.999 -99.9 -99.99 -9.99
2020/02/24 11:54 EST    2.29   2.78 -999 -999 -999  46.8  41.8 1017.4 -9.9 -9.999 -99.9 -99.99 -9.99
2020/02/24 12:00 EST    2.17   2.63 -999 -999 -999  47.0  41.8 1017.3 -9.9 -9.999 -99.9 -99.99 -9.99
2020/02/24 12:06 EST    2.06   2.50 -999 -999 -999  47.6  41.8 1017.2 -9.9 -9.999 -99.9 -99.99 -9.99
2020/02/24 12:12 EST    1.94   2.37 -999 -999 -999  46.6  41.8 1017.2 -9.9 -9.999 -99.9 -99.99 -9.99
2020/02/24 12:18 EST    1.83   2.25 -999 -999 -999  46.7  41.8 1017.1 -9.9 -9.999 -99.9 -99.99 -9.99
2020/02/24 12:24 EST    1.72   2.11 -999 -999 -999  47.3  41.8 1016.9 -9.9 -9.999 -99.9 -99.99 -9.99
2020/02/24 12:30 EST    1.61   2.00 -999 -999 -999  48.5  41.8 1016.8 -9.9 -9.999 -99.9 -99.99 -9.99
2020/02/24 12:36 EST    1.51   1.90 -999 -999 -999  49.8  41.8 1016.7 -9.9 -9.999 -99.9 -99.99 -9.99
2020/02/24 12:42 EST    1.40   1.81 -999 -999 -999  49.9  41.9 1016.6 -9.9 -9.999 -99.9 -99.99 -9.99
2020/02/24 12:48 EST    1.30   1.73 -999 -999 -999  47.9  41.9 1016.6 -9.9 -9.999 -99.9 -99.99 -9.99
2020/02/24 12:54 EST    1.20   1.63 -999 -999 -999  48.2  41.9 1016.5 -9.9 -9.999 -99.9 -99.99 -9.99
2020/02/24 13:00 EST    1.10   1.50 -999 -999 -999  48.9  42.1 1016.3 -9.9 -9.999 -99.9 -99.99 -9.99
2020/02/24 13:06 EST    1.00   1.42 -999 -999 -999  49.8  42.1 1016.2 -9.9 -9.999 -99.9 -99.99 -9.99
2020/02/24 13:12 EST    0.90   1.34 -999 -999 -999  50.2  42.1 1016.2 -9.9 -9.999 -99.9 -99.99 -9.99
2020/02/24 13:18 EST    0.81   1.27 -999 -999 -999  51.5  42.1 1016.1 -9.9 -9.999 -99.9 -99.99 -9.99
2020/02/24 13:24 EST    0.71   1.17 -999 -999 -999  51.2  42.1 1016.0 -9.9 -9.999 -99.9 -99.99 -9.99
2020/02/24 13:30 EST    0.62   1.10 -999 -999 -999  51.3  42.1 1015.9 -9.9 -9.999 -99.9 -99.99 -9.99
2020/02/24 13:36 EST    0.53   1.03 -999 -999 -999  52.3  42.1 1015.9 -9.9 -9.999 -99.9 -99.99 -9.99
2020/02/24 13:42 EST    0.44   0.98 -999 -999 -999  52.8  42.1 1015.9 -9.9 -9.999 -99.9 -99.99 -9.99
2020/02/24 13:48 EST    0.36   0.88 -999 -999 -999  56.6  42.2 1015.9 -9.9 -9.999 -99.9 -99.99 -9.99
2020/02/24 13:54 EST    0.28   0.82 -999 -999 -999  56.3  42.2 1015.8 -9.9 -9.999 -99.9 -99.99 -9.99
2020/02/24 14:00 EST    0.20   0.73 -999 -999 -999  52.5  42.2 1015.8 -9.9 -9.999 -99.9 -99.99 -9.99
2020/02/24 14:06 EST    0.13   0.66 -999 -999 -999  54.7  42.2 1015.8 -9.9 -9.999 -99.9 -99.99 -9.99
2020/02/24 14:12 EST    0.06   0.63 -999 -999 -999  55.5  42.3 1015.8 -9.9 -9.999 -99.9 -99.99 -9.99
2020/02/24 14:18 EST   -0.01   0.60 -999 -999 -999  56.6  42.3 1015.7 -9.9 -9.999 -99.9 -99.99 -9.99
2020/02/24 14:24 EST   -0.07   0.57 -999 -999 -999  55.6  42.1 1015.6 -9.9 -9.999 -99.9 -99.99 -9.99
2020/02/24 14:30 EST   -0.12   0.52 -999 -999 -999  55.8  42.1 1015.6 -9.9 -9.999 -99.9 -99.99 -9.99
2020/02/24 14:36 EST   -0.17   0.49 -999 -999 -999  54.0  42.1 1015.5 -9.9 -9.999 -99.9 -99.99 -9.99
2020/02/24 14:42 EST   -0.21   0.45 -999 -999 -999  52.4  42.1 1015.5 -9.9 -9.999 -99.9 -99.99 -9.99
2020/02/24 14:48 EST   -0.24   0.42 -999 -999 -999  53.1  42.1 1015.4 -9.9 -9.999 -99.9 -99.99 -9.99
2020/02/24 14:54 EST   -0.27   0.40 -999 -999 -999  53.2  42.1 1015.3 -9.9 -9.999 -99.9 -99.99 -9.99
2020/02/24 15:00 EST   -0.29   0.37 -999 -999 -999  54.2  42.1 1015.2 -9.9 -9.999 -99.9 -99.99 -9.99
2020/02/24 15:06 EST   -0.29   0.34 -999 -999 -999  55.2  42.1 1015.1 -9.9 -9.999 -99.9 -99.99 -9.99
2020/02/24 15:12 EST   -0.29   0.34 -999 -999 -999  53.8  42.1 1015.1 -9.9 -9.999 -99.9 -99.99 -9.99
2020/02/24 15:18 EST   -0.28   0.36 -999 -999 -999  52.4  42.0 1015.1 -9.9 -9.999 -99.9 -99.99 -9.99
2020/02/24 15:24 EST   -0.26   0.37 -999 -999 -999  52.2  42.0 1015.0 -9.9 -9.999 -99.9 -99.99 -9.99
2020/02/24 15:30 EST   -0.23   0.42 -999 -999 -999  52.8  42.0 1015.0 -9.9 -9.999 -99.9 -99.99 -9.99
2020/02/24 15:36 EST   -0.19   0.45 -999 -999 -999  52.5  41.9 1014.9 -9.9 -9.999 -99.9 -99.99 -9.99
2020/02/24 15:42 EST   -0.14   0.51 -999 -999 -999  52.2  42.0 1014.9 -9.9 -9.999 -99.9 -99.99 -9.99
2020/02/24 15:48 EST   -0.09   0.56 -999 -999 -999  52.1  42.0 1014.8 -9.9 -9.999 -99.9 -99.99 -9.99
2020/02/24 15:54 EST   -0.02   0.63 -999 -999 -999  51.9  42.0 1014.8 -9.9 -9.999 -99.9 -99.99 -9.99
2020/02/24 16:00 EST    0.05   0.70 -999 -999 -999  51.9  41.9 1014.7 -9.9 -9.999 -99.9 -99.99 -9.99
2020/02/24 16:06 EST    0.13   0.78 -999 -999 -999  52.0  41.9 1014.7 -9.9 -9.999 -99.9 -99.99 -9.99
2020/02/24 16:12 EST    0.22   0.87 -999 -999 -999  51.6  41.8 1014.6 -9.9 -9.999 -99.9 -99.99 -9.99
2020/02/24 16:18 EST    0.32   0.98 -999 -999 -999  51.8  41.8 1014.6 -9.9 -9.999 -99.9 -99.99 -9.99
2020/02/24 16:24 EST    0.42   1.11 -999 -999 -999  51.6  41.8 1014.6 -9.9 -9.999 -99.9 -99.99 -9.99
2020/02/24 16:30 EST    0.53   1.26 -999 -999 -999  50.6  41.8 1014.4 -9.9 -9.999 -99.9 -99.99 -9.99
2020/02/24 16:36 EST    0.64   1.39 -999 -999 -999  50.3  41.7 1014.3 -9.9 -9.999 -99.9 -99.99 -9.99
2020/02/24 16:42 EST    0.76   1.53 -999 -999 -999  50.3  41.7 1014.2 -9.9 -9.999 -99.9 -99.99 -9.99
2020/02/24 16:48 EST    0.88   1.70 -999 -999 -999  50.1  41.7 1014.2 -9.9 -9.999 -99.9 -99.99 -9.99
2020/02/24 16:54 EST    1.00   1.81 -999 -999 -999  49.8  41.8 1014.2 -9.9 -9.999 -99.9 -99.99 -9.99
2020/02/24 17:00 EST    1.12   1.95 -999 -999 -999  49.9  41.7 1014.2 -9.9 -9.999 -99.9 -99.99 -9.99
2020/02/24 17:06 EST    1.25   2.08 -999 -999 -999  48.7  41.7 1014.2 -9.9 -9.999 -99.9 -99.99 -9.99
2020/02/24 17:12 EST    1.38   2.22 -999 -999 -999  48.5  41.7 1014.1 -9.9 -9.999 -99.9 -99.99 -9.99
2020/02/24 17:18 EST    1.51   2.38 -999 -999 -999  49.0  41.7 1014.0 -9.9 -9.999 -99.9 -99.99 -9.99
2020/02/24 17:24 EST    1.63   2.51 -999 -999 -999  48.9  41.7 1013.9 -9.9 -9.999 -99.9 -99.99 -9.99
2020/02/24 17:30 EST    1.76   2.65 -999 -999 -999  48.6  41.6 1013.8 -9.9 -9.999 -99.9 -99.99 -9.99
2020/02/24 17:36 EST    1.89   2.78 -999 -999 -999  48.5  41.6 1013.9 -9.9 -9.999 -99.9 -99.99 -9.99
2020/02/24 17:42 EST    2.01   2.95 -999 -999 -999  48.2  41.7 1013.8 -9.9 -9.999 -99.9 -99.99 -9.99
2020/02/24 17:48 EST    2.13   3.07 -999 -999 -999  48.7  41.6 1013.8 -9.9 -9.999 -99.9 -99.99 -9.99
2020/02/24 17:54 EST    2.26   3.22 -999 -999 -999  48.3  41.5 1013.9 -9.9 -9.999 -99.9 -99.99 -9.99
2020/02/24 18:00 EST    2.37   3.34 -999 -999 -999  48.6  41.5 1014.1 -9.9 -9.999 -99.9 -99.99 -9.99
2020/02/24 18:06 EST    2.49   3.49 -999 -999 -999  48.8  41.3 1014.2 -9.9 -9.999 -99.9 -99.99 -9.99
2020/02/24 18:12 EST    2.60   3.61 -999 -999 -999  48.3  41.2 1014.3 -9.9 -9.999 -99.9 -99.99 -9.99
2020/02/24 18:18 EST    2.72   3.76 -999 -999 -999  48.3  41.4 1014.5 -9.9 -9.999 -99.9 -99.99 -9.99
2020/02/24 18:24 EST    2.82   3.84 -999 -999 -999  48.1  41.5 1014.8 -9.9 -9.999 -99.9 -99.99 -9.99
2020/02/24 18:30 EST    2.93   3.99 -999 -999 -999  47.9  41.5 1015.0 -9.9 -9.999 -99.9 -99.99 -9.99
2020/02/24 18:36 EST    3.03   4.08 -999 -999 -999  48.0  41.5 1015.1 -9.9 -9.999 -99.9 -99.99 -9.99
2020/02/24 18:42 EST    3.13   4.18 -999 -999 -999  48.2  41.5 1015.0 -9.9 -9.999 -99.9 -99.99 -9.99
2020/02/24 18:48 EST    3.23   4.28 -999 -999 -999  48.9  41.5 1015.0 -9.9 -9.999 -99.9 -99.99 -9.99
2020/02/24 18:54 EST    3.32   4.33 -999 -999 -999  49.3  41.5 1014.9 -9.9 -9.999 -99.9 -99.99 -9.99
2020/02/24 19:00 EST    3.41   4.40 -999 -999 -999  49.8  41.5 1015.0 -9.9 -9.999 -99.9 -99.99 -9.99
2020/02/24 19:06 EST    3.50   4.44 -999 -999 -999  50.0  41.4 1014.9 -9.9 -9.999 -99.9 -99.99 -9.99
2020/02/24 19:12 EST    3.58   4.49 -999 -999 -999  50.2  41.4 1014.7 -9.9 -9.999 -99.9 -99.99 -9.99
2020/02/24 19:18 EST    3.66   4.54 -999 -999 -999  50.2  41.4 1014.6 -9.9 -9.999 -99.9 -99.99 -9.99
2020/02/24 19:24 EST    3.74   4.63 -999 -999 -999  50.2  41.4 1014.5 -9.9 -9.999 -99.9 -99.99 -9.99
2020/02/24 19:30 EST    3.81   4.67 -999 -999 -999  51.8  41.4 1014.3 -9.9 -9.999 -99.9 -99.99 -9.99
2020/02/24 19:36 EST    3.88   4.72 -999 -999 -999  51.9  41.5 1014.1 -9.9 -9.999 -99.9 -99.99 -9.99
2020/02/24 19:42 EST    3.94   4.77 -999 -999 -999  51.5  41.5 1014.1 -9.9 -9.999 -99.9 -99.99 -9.99
2020/02/24 19:48 EST    4.01   4.82 -999 -999 -999  51.1  41.5 1014.0 -9.9 -9.999 -99.9 -99.99 -9.99
2020/02/24 19:54 EST    4.07   4.87 -999 -999 -999  51.0  41.5 1014.1 -9.9 -9.999 -99.9 -99.99 -9.99
2020/02/24 20:00 EST    4.12   4.93 -999 -999 -999  50.7  41.5 1014.2 -9.9 -9.999 -99.9 -99.99 -9.99
2020/02/24 20:06 EST    4.17   4.97 -999 -999 -999  49.1  41.6 1014.2 -9.9 -9.999 -99.9 -99.99 -9.99
2020/02/24 20:12 EST    4.22   5.01 -999 -999 -999  49.9  41.6 1014.1 -9.9 -9.999 -99.9 -99.99 -9.99
2020/02/24 20:18 EST    4.26   5.04 -999 -999 -999  50.0  41.6 1014.0 -9.9 -9.999 -99.9 -99.99 -9.99
2020/02/24 20:24 EST    4.30   5.06 -999 -999 -999  49.9  41.6 1013.9 -9.9 -9.999 -99.9 -99.99 -9.99
2020/02/24 20:30 EST    4.34   5.08 -999 -999 -999  50.0  41.6 1013.8 -9.9 -9.999 -99.9 -99.99 -9.99
2020/02/24 20:36 EST    4.37   5.10 -999 -999 -999  49.6  41.6 1013.9 -9.9 -9.999 -99.9 -99.99 -9.99
2020/02/24 20:42 EST    4.40   5.11 -999 -999 -999  49.9  41.6 1013.9 -9.9 -9.999 -99.9 -99.99 -9.99
2020/02/24 20:48 EST    4.42   5.12 -999 -999 -999  50.1  41.6 1014.0 -9.9 -9.999 -99.9 -99.99 -9.99
2020/02/24 20:54 EST    4.44   5.12 -999 -999 -999  49.9  41.6 1013.9 -9.9 -9.999 -99.9 -99.99 -9.99
2020/02/24 21:00 EST    4.45   5.14 -999 -999 -999  49.7  41.6 1013.9 -9.9 -9.999 -99.9 -99.99 -9.99
2020/02/24 21:06 EST    4.45   5.14 -999 -999 -999  49.5  41.6 1014.0 -9.9 -9.999 -99.9 -99.99 -9.99
2020/02/24 21:12 EST    4.46   5.14 -999 -999 -999  49.8  41.6 1014.0 -9.9 -9.999 -99.9 -99.99 -9.99
2020/02/24 21:18 EST    4.45   5.13 -999 -999 -999  49.6  41.6 1014.1 -9.9 -9.999 -99.9 -99.99 -9.99
2020/02/24 21:24 EST    4.44   5.08 -999 -999 -999  49.6  41.6 1014.2 -9.9 -9.999 -99.9 -99.99 -9.99
2020/02/24 21:30 EST    4.43   5.07 -999 -999 -999  49.6  41.6 1014.2 -9.9 -9.999 -99.9 -99.99 -9.99
2020/02/24 21:36 EST    4.41   5.05 -999 -999 -999  49.7  41.6 1014.1 -9.9 -9.999 -99.9 -99.99 -9.99
2020/02/24 21:42 EST    4.38   5.03 -999 -999 -999  49.8  41.6 1014.3 -9.9 -9.999 -99.9 -99.99 -9.99
2020/02/24 21:48 EST    4.34   5.00 -999 -999 -999  49.8  41.6 1014.4 -9.9 -9.999 -99.9 -99.99 -9.99
2020/02/24 21:54 EST    4.30   4.95 -999 -999 -999  49.8  41.6 1014.3 -9.9 -9.999 -99.9 -99.99 -9.99
2020/02/24 22:00 EST    4.26   4.91 -999 -999 -999  49.7  41.6 1014.2 -9.9 -9.999 -99.9 -99.99 -9.99
2020/02/24 22:06 EST    4.21   4.85 -999 -999 -999  49.6  41.6 1014.3 -9.9 -9.999 -99.9 -99.99 -9.99
2020/02/24 22:12 EST    4.15   4.77 -999 -999 -999  49.5  41.7 1014.4 -9.9 -9.999 -99.9 -99.99 -9.99
2020/02/24 22:18 EST    4.09   4.68 -999 -999 -999  49.2  41.7 1014.4 -9.9 -9.999 -99.9 -99.99 -9.99
2020/02/24 22:24 EST    4.02   4.58 -999 -999 -999  49.2  41.7 1014.4 -9.9 -9.999 -99.9 -99.99 -9.99
2020/02/24 22:30 EST    3.94   4.49 -999 -999 -999  49.3  41.7 1014.4 -9.9 -9.999 -99.9 -99.99 -9.99
2020/02/24 22:36 EST    3.86   4.40 -999 -999 -999  49.2  41.7 1014.3 -9.9 -9.999 -99.9 -99.99 -9.99
2020/02/24 22:42 EST    3.77   4.28 -999 -999 -999  49.1  41.7 1014.1 -9.9 -9.999 -99.9 -99.99 -9.99
2020/02/24 22:48 EST    3.68   4.19 -999 -999 -999  49.0  41.7 1014.1 -9.9 -9.999 -99.9 -99.99 -9.99
2020/02/24 22:54 EST    3.59   4.07 -999 -999 -999  49.1  41.7 1013.9 -9.9 -9.999 -99.9 -99.99 -9.99
2020/02/24 23:00 EST    3.49   3.99 -999 -999 -999  48.6  41.7 1013.9 -9.9 -9.999 -99.9 -99.99 -9.99
2020/02/24 23:06 EST    3.39   3.91 -999 -999 -999  48.4  41.7 1013.9 -9.9 -9.999 -99.9 -99.99 -9.99
2020/02/24 23:12 EST    3.28 -99.99 -999 -999 -999 -99.9 -99.9 -999.9 -9.9 -9.999 -99.9 -99.99 -9.99
2020/02/24 23:18 EST    3.18 -99.99 -999 -999 -999 -99.9 -99.9 -999.9 -9.9 -9.999 -99.9 -99.99 -9.99
2020/02/24 23:24 EST    3.07 -99.99 -999 -999 -999 -99.9 -99.9 -999.9 -9.9 -9.999 -99.9 -99.99 -9.99
2020/02/24 23:30 EST    2.96 -99.99 -999 -999 -999 -99.9 -99.9 -999.9 -9.9 -9.999 -99.9 -99.99 -9.99
2020/02/24 23:36 EST    2.84 -99.99 -999 -999 -999 -99.9 -99.9 -999.9 -9.9 -9.999 -99.9 -99.99 -9.99
2020/02/24 23:42 EST    2.73 -99.99 -999 -999 -999 -99.9 -99.9 -999.9 -9.9 -9.999 -99.9 -99.99 -9.99
2020/02/24 23:48 EST    2.62 -99.99 -999 -999 -999 -99.9 -99.9 -999.9 -9.9 -9.999 -99.9 -99.99 -9.99
2020/02/24 23:54 EST    2.51 -99.99 -999 -999 -999 -99.9 -99.9 -999.9 -9.9 -9.999 -99.9 -99.99 -9.99
2020/02/25 00:00 EST    2.39 -99.99 -999 -999 -999 -99.9 -99.9 -999.9 -9.9 -9.999 -99.9 -99.99 -9.99
2020/02/25 00:06 EST    2.28 -99.99 -999 -999 -999 -99.9 -99.9 -999.9 -9.9 -9.999 -99.9 -99.99 -9.99
2020/02/25 00:12 EST    2.17 -99.99 -999 -999 -999 -99.9 -99.9 -999.9 -9.9 -9.999 -99.9 -99.99 -9.99
2020/02/25 00:18 EST    2.07 -99.99 -999 -999 -999 -99.9 -99.9 -999.9 -9.9 -9.999 -99.9 -99.99 -9.99
2020/02/25 00:24 EST    1.96 -99.99 -999 -999 -999 -99.9 -99.9 -999.9 -9.9 -9.999 -99.9 -99.99 -9.99
2020/02/25 00:30 EST    1.86 -99.99 -999 -999 -999 -99.9 -99.9 -999.9 -9.9 -9.999 -99.9 -99.99 -9.99
2020/02/25 00:36 EST    1.76 -99.99 -999 -999 -999 -99.9 -99.9 -999.9 -9.9 -9.999 -99.9 -99.99 -9.99
2020/02/25 00:42 EST    1.66 -99.99 -999 -999 -999 -99.9 -99.9 -999.9 -9.9 -9.999 -99.9 -99.99 -9.99
2020/02/25 00:48 EST    1.56 -99.99 -999 -999 -999 -99.9 -99.9 -999.9 -9.9 -9.999 -99.9 -99.99 -9.99
2020/02/25 00:54 EST    1.46 -99.99 -999 -999 -999 -99.9 -99.9 -999.9 -9.9 -9.999 -99.9 -99.99 -9.99
2020/02/25 01:00 EST    1.37 -99.99 -999 -999 -999 -99.9 -99.9 -999.9 -9.9 -9.999 -99.9 -99.99 -9.99
2020/02/25 01:06 EST    1.28 -99.99 -999 -999 -999 -99.9 -99.9 -999.9 -9.9 -9.999 -99.9 -99.99 -9.99
2020/02/25 01:12 EST    1.19 -99.99 -999 -999 -999 -99.9 -99.9 -999.9 -9.9 -9.999 -99.9 -99.99 -9.99
2020/02/25 01:18 EST    1.11 -99.99 -999 -999 -999 -99.9 -99.9 -999.9 -9.9 -9.999 -99.9 -99.99 -9.99
2020/02/25 01:24 EST    1.02 -99.99 -999 -999 -999 -99.9 -99.9 -999.9 -9.9 -9.999 -99.9 -99.99 -9.99
2020/02/25 01:30 EST    0.94 -99.99 -999 -999 -999 -99.9 -99.9 -999.9 -9.9 -9.999 -99.9 -99.99 -9.99
2020/02/25 01:36 EST    0.86 -99.99 -999 -999 -999 -99.9 -99.9 -999.9 -9.9 -9.999 -99.9 -99.99 -9.99
2020/02/25 01:42 EST    0.78 -99.99 -999 -999 -999 -99.9 -99.9 -999.9 -9.9 -9.999 -99.9 -99.99 -9.99
2020/02/25 01:48 EST    0.70 -99.99 -999 -999 -999 -99.9 -99.9 -999.9 -9.9 -9.999 -99.9 -99.99 -9.99
2020/02/25 01:54 EST    0.63 -99.99 -999 -999 -999 -99.9 -99.9 -999.9 -9.9 -9.999 -99.9 -99.99 -9.99
2020/02/25 02:00 EST    0.55 -99.99 -999 -999 -999 -99.9 -99.9 -999.9 -9.9 -9.999 -99.9 -99.99 -9.99
2020/02/25 02:06 EST    0.48 -99.99 -999 -999 -999 -99.9 -99.9 -999.9 -9.9 -9.999 -99.9 -99.99 -9.99
2020/02/25 02:12 EST    0.42 -99.99 -999 -999 -999 -99.9 -99.9 -999.9 -9.9 -9.999 -99.9 -99.99 -9.99
2020/02/25 02:18 EST    0.35 -99.99 -999 -999 -999 -99.9 -99.9 -999.9 -9.9 -9.999 -99.9 -99.99 -9.99
2020/02/25 02:24 EST    0.29 -99.99 -999 -999 -999 -99.9 -99.9 -999.9 -9.9 -9.999 -99.9 -99.99 -9.99
2020/02/25 02:30 EST    0.23 -99.99 -999 -999 -999 -99.9 -99.9 -999.9 -9.9 -9.999 -99.9 -99.99 -9.99
2020/02/25 02:36 EST    0.18 -99.99 -999 -999 -999 -99.9 -99.9 -999.9 -9.9 -9.999 -99.9 -99.99 -9.99
2020/02/25 02:42 EST    0.13 -99.99 -999 -999 -999 -99.9 -99.9 -999.9 -9.9 -9.999 -99.9 -99.99 -9.99
2020/02/25 02:48 EST    0.09 -99.99 -999 -999 -999 -99.9 -99.9 -999.9 -9.9 -9.999 -99.9 -99.99 -9.99
2020/02/25 02:54 EST    0.06 -99.99 -999 -999 -999 -99.9 -99.9 -999.9 -9.9 -9.999 -99.9 -99.99 -9.99
2020/02/25 03:00 EST    0.03 -99.99 -999 -999 -999 -99.9 -99.9 -999.9 -9.9 -9.999 -99.9 -99.99 -9.99
2020/02/25 03:06 EST    0.00 -99.99 -999 -999 -999 -99.9 -99.9 -999.9 -9.9 -9.999 -99.9 -99.99 -9.99
2020/02/25 03:12 EST   -0.02 -99.99 -999 -999 -999 -99.9 -99.9 -999.9 -9.9 -9.999 -99.9 -99.99 -9.99
2020/02/25 03:18 EST   -0.02 -99.99 -999 -999 -999 -99.9 -99.9 -999.9 -9.9 -9.999 -99.9 -99.99 -9.99
2020/02/25 03:24 EST   -0.02 -99.99 -999 -999 -999 -99.9 -99.9 -999.9 -9.9 -9.999 -99.9 -99.99 -9.99
2020/02/25 03:30 EST   -0.02 -99.99 -999 -999 -999 -99.9 -99.9 -999.9 -9.9 -9.999 -99.9 -99.99 -9.99
2020/02/25 03:36 EST    0.00 -99.99 -999 -999 -999 -99.9 -99.9 -999.9 -9.9 -9.999 -99.9 -99.99 -9.99
2020/02/25 03:42 EST    0.03 -99.99 -999 -999 -999 -99.9 -99.9 -999.9 -9.9 -9.999 -99.9 -99.99 -9.99
2020/02/25 03:48 EST    0.06 -99.99 -999 -999 -999 -99.9 -99.9 -999.9 -9.9 -9.999 -99.9 -99.99 -9.99
2020/02/25 03:54 EST    0.11 -99.99 -999 -999 -999 -99.9 -99.9 -999.9 -9.9 -9.999 -99.9 -99.99 -9.99
2020/02/25 04:00 EST    0.16 -99.99 -999 -999 -999 -99.9 -99.9 -999.9 -9.9 -9.999 -99.9 -99.99 -9.99
2020/02/25 04:06 EST    0.22 -99.99 -999 -999 -999 -99.9 -99.9 -999.9 -9.9 -9.999 -99.9 -99.99 -9.99
2020/02/25 04:12 EST    0.29 -99.99 -999 -999 -999 -99.9 -99.9 -999.9 -9.9 -9.999 -99.9 -99.99 -9.99
2020/02/25 04:18 EST    0.37 -99.99 -999 -999 -999 -99.9 -99.9 -999.9 -9.9 -9.999 -99.9 -99.99 -9.99
2020/02/25 04:24 EST    0.45 -99.99 -999 -999 -999 -99.9 -99.9 -999.9 -9.9 -9.999 -99.9 -99.99 -9.99
2020/02/25 04:30 EST    0.55 -99.99 -999 -999 -999 -99.9 -99.9 -999.9 -9.9 -9.999 -99.9 -99.99 -9.99
2020/02/25 04:36 EST    0.65 -99.99 -999 -999 -999 -99.9 -99.9 -999.9 -9.9 -9.999 -99.9 -99.99 -9.99
2020/02/25 04:42 EST    0.75 -99.99 -999 -999 -999 -99.9 -99.9 -999.9 -9.9 -9.999 -99.9 -99.99 -9.99
2020/02/25 04:48 EST    0.86 -99.99 -999 -999 -999 -99.9 -99.9 -999.9 -9.9 -9.999 -99.9 -99.99 -9.99
2020/02/25 04:54 EST    0.98 -99.99 -999 -999 -999 -99.9 -99.9 -999.9 -9.9 -9.999 -99.9 -99.99 -9.99
2020/02/25 05:00 EST    1.10 -99.99 -999 -999 -999 -99.9 -99.9 -999.9 -9.9 -9.999 -99.9 -99.99 -9.99
2020/02/25 05:06 EST    1.22 -99.99 -999 -999 -999 -99.9 -99.9 -999.9 -9.9 -9.999 -99.9 -99.99 -9.99
2020/02/25 05:12 EST    1.35 -99.99 -999 -999 -999 -99.9 -99.9 -999.9 -9.9 -9.999 -99.9 -99.99 -9.99